sensor_id;sensor_type;location;lat;lon;timestamp;P1;durP1;ratioP1;P2;durP2;ratioP2
59468;SDS011;45277;52.768;18.262;2023-05-02T00:00:05;7.88;;;4.03;;
59468;SDS011;45277;52.768;18.262;2023-05-02T00:01:57;10.88;;;4.30;;
59468;SDS011;45277;52.768;18.262;2023-05-02T00:03:28;8.15;;;4.13;;
59468;SDS011;45277;52.768;18.262;2023-05-02T00:05:01;6.80;;;4.03;;
59468;SDS011;45277;52.768;18.262;2023-05-02T00:06:32;10.30;;;4.65;;
59468;SDS011;45277;52.768;18.262;2023-05-02T00:08:04;9.43;;;4.60;;
59468;SDS011;45277;52.768;18.262;2023-05-02T00:09:36;8.93;;;4.75;;
59468;SDS011;45277;52.768;18.262;2023-05-02T00:11:08;9.55;;;4.10;;
59468;SDS011;45277;52.768;18.262;2023-05-02T00:12:39;8.75;;;4.40;;
59468;SDS011;45277;52.768;18.262;2023-05-02T00:14:11;12.18;;;4.80;;
59468;SDS011;45277;52.768;18.262;2023-05-02T00:15:42;10.45;;;4.47;;
59468;SDS011;45277;52.768;18.262;2023-05-02T00:17:16;9.23;;;4.28;;
59468;SDS011;45277;52.768;18.262;2023-05-02T00:18:49;8.10;;;4.10;;
59468;SDS011;45277;52.768;18.262;2023-05-02T00:20:20;9.45;;;5.07;;
59468;SDS011;45277;52.768;18.262;2023-05-02T00:21:52;9.63;;;4.13;;
59468;SDS011;45277;52.768;18.262;2023-05-02T00:23:23;7.55;;;4.20;;
59468;SDS011;45277;52.768;18.262;2023-05-02T00:24:57;11.85;;;4.57;;
59468;SDS011;45277;52.768;18.262;2023-05-02T00:26:29;11.25;;;4.78;;
59468;SDS011;45277;52.768;18.262;2023-05-02T00:28:00;9.10;;;4.07;;
59468;SDS011;45277;52.768;18.262;2023-05-02T00:29:32;8.82;;;4.07;;
59468;SDS011;45277;52.768;18.262;2023-05-02T00:31:03;8.13;;;4.70;;
59468;SDS011;45277;52.768;18.262;2023-05-02T00:32:35;8.63;;;4.40;;
59468;SDS011;45277;52.768;18.262;2023-05-02T00:34:07;8.93;;;4.45;;
59468;SDS011;45277;52.768;18.262;2023-05-02T00:35:38;8.95;;;4.57;;
59468;SDS011;45277;52.768;18.262;2023-05-02T00:37:10;9.32;;;4.57;;
59468;SDS011;45277;52.768;18.262;2023-05-02T00:38:42;9.95;;;4.30;;
59468;SDS011;45277;52.768;18.262;2023-05-02T00:40:14;7.95;;;4.35;;
59468;SDS011;45277;52.768;18.262;2023-05-02T00:41:46;10.40;;;4.20;;
59468;SDS011;45277;52.768;18.262;2023-05-02T00:43:17;6.97;;;4.28;;
59468;SDS011;45277;52.768;18.262;2023-05-02T00:44:50;6.65;;;4.15;;
59468;SDS011;45277;52.768;18.262;2023-05-02T00:46:21;8.10;;;3.97;;
59468;SDS011;45277;52.768;18.262;2023-05-02T00:47:53;10.40;;;4.35;;
59468;SDS011;45277;52.768;18.262;2023-05-02T00:49:24;10.00;;;4.63;;
59468;SDS011;45277;52.768;18.262;2023-05-02T00:50:56;8.82;;;4.25;;
59468;SDS011;45277;52.768;18.262;2023-05-02T00:52:28;16.08;;;4.20;;
59468;SDS011;45277;52.768;18.262;2023-05-02T00:53:59;11.93;;;4.40;;
59468;SDS011;45277;52.768;18.262;2023-05-02T00:55:31;9.52;;;4.38;;
59468;SDS011;45277;52.768;18.262;2023-05-02T00:57:03;8.55;;;4.43;;
59468;SDS011;45277;52.768;18.262;2023-05-02T00:58:35;6.53;;;4.50;;
59468;SDS011;45277;52.768;18.262;2023-05-02T01:02:56;8.32;;;4.60;;
59468;SDS011;45277;52.768;18.262;2023-05-02T01:08:39;7.47;;;4.10;;
59468;SDS011;45277;52.768;18.262;2023-05-02T01:10:22;12.95;;;6.22;;
59468;SDS011;45277;52.768;18.262;2023-05-02T01:13:36;9.63;;;4.60;;
59468;SDS011;45277;52.768;18.262;2023-05-02T01:15:10;9.48;;;4.72;;
59468;SDS011;45277;52.768;18.262;2023-05-02T01:16:46;8.88;;;4.22;;
59468;SDS011;45277;52.768;18.262;2023-05-02T01:18:20;9.73;;;4.47;;
59468;SDS011;45277;52.768;18.262;2023-05-02T01:19:56;8.95;;;4.22;;
59468;SDS011;45277;52.768;18.262;2023-05-02T01:21:29;10.30;;;4.18;;
59468;SDS011;45277;52.768;18.262;2023-05-02T01:23:02;9.30;;;4.15;;
59468;SDS011;45277;52.768;18.262;2023-05-02T01:24:53;10.85;;;5.32;;
59468;SDS011;45277;52.768;18.262;2023-05-02T01:28:56;9.73;;;4.50;;
59468;SDS011;45277;52.768;18.262;2023-05-02T01:30:27;9.32;;;4.72;;
59468;SDS011;45277;52.768;18.262;2023-05-02T01:32:02;7.10;;;4.43;;
59468;SDS011;45277;52.768;18.262;2023-05-02T01:33:36;7.55;;;4.20;;
59468;SDS011;45277;52.768;18.262;2023-05-02T01:35:09;7.43;;;3.97;;
59468;SDS011;45277;52.768;18.262;2023-05-02T01:36:44;7.53;;;4.78;;
59468;SDS011;45277;52.768;18.262;2023-05-02T01:38:18;9.45;;;4.88;;
59468;SDS011;45277;52.768;18.262;2023-05-02T01:39:52;8.77;;;4.43;;
59468;SDS011;45277;52.768;18.262;2023-05-02T01:41:26;9.38;;;4.93;;
59468;SDS011;45277;52.768;18.262;2023-05-02T01:43:00;11.35;;;4.90;;
59468;SDS011;45277;52.768;18.262;2023-05-02T01:44:35;9.50;;;4.30;;
59468;SDS011;45277;52.768;18.262;2023-05-02T01:46:08;9.63;;;4.28;;
59468;SDS011;45277;52.768;18.262;2023-05-02T01:47:40;7.63;;;4.32;;
59468;SDS011;45277;52.768;18.262;2023-05-02T01:49:16;7.82;;;4.25;;
59468;SDS011;45277;52.768;18.262;2023-05-02T01:50:48;8.10;;;4.57;;
59468;SDS011;45277;52.768;18.262;2023-05-02T01:52:21;8.25;;;4.75;;
59468;SDS011;45277;52.768;18.262;2023-05-02T01:53:55;10.30;;;4.60;;
59468;SDS011;45277;52.768;18.262;2023-05-02T01:55:28;7.80;;;4.55;;
59468;SDS011;45277;52.768;18.262;2023-05-02T01:57:00;7.38;;;4.90;;
59468;SDS011;45277;52.768;18.262;2023-05-02T01:58:35;8.52;;;4.97;;
59468;SDS011;45277;52.768;18.262;2023-05-02T02:00:09;9.45;;;4.80;;
59468;SDS011;45277;52.768;18.262;2023-05-02T02:01:42;10.05;;;4.47;;
59468;SDS011;45277;52.768;18.262;2023-05-02T02:03:14;8.93;;;4.70;;
59468;SDS011;45277;52.768;18.262;2023-05-02T02:04:47;13.07;;;5.03;;
59468;SDS011;45277;52.768;18.262;2023-05-02T02:06:19;9.93;;;4.40;;
59468;SDS011;45277;52.768;18.262;2023-05-02T02:07:52;8.65;;;4.40;;
59468;SDS011;45277;52.768;18.262;2023-05-02T02:09:23;10.70;;;4.53;;
59468;SDS011;45277;52.768;18.262;2023-05-02T02:10:58;13.18;;;5.00;;
59468;SDS011;45277;52.768;18.262;2023-05-02T02:12:41;7.28;;;4.80;;
59468;SDS011;45277;52.768;18.262;2023-05-02T02:14:19;11.90;;;4.55;;
59468;SDS011;45277;52.768;18.262;2023-05-02T02:15:52;10.75;;;5.03;;
59468;SDS011;45277;52.768;18.262;2023-05-02T02:17:31;10.90;;;5.43;;
59468;SDS011;45277;52.768;18.262;2023-05-02T02:19:15;11.32;;;5.03;;
59468;SDS011;45277;52.768;18.262;2023-05-02T02:20:47;9.77;;;4.75;;
59468;SDS011;45277;52.768;18.262;2023-05-02T02:22:20;10.35;;;5.07;;
59468;SDS011;45277;52.768;18.262;2023-05-02T02:23:56;8.00;;;4.22;;
59468;SDS011;45277;52.768;18.262;2023-05-02T02:25:47;8.77;;;4.70;;
59468;SDS011;45277;52.768;18.262;2023-05-02T02:27:22;9.73;;;4.78;;
59468;SDS011;45277;52.768;18.262;2023-05-02T02:28:53;7.72;;;4.70;;
59468;SDS011;45277;52.768;18.262;2023-05-02T02:30:25;11.73;;;4.88;;
59468;SDS011;45277;52.768;18.262;2023-05-02T02:31:57;9.73;;;4.88;;
59468;SDS011;45277;52.768;18.262;2023-05-02T02:33:29;7.90;;;4.60;;
59468;SDS011;45277;52.768;18.262;2023-05-02T02:35:01;10.18;;;4.88;;
59468;SDS011;45277;52.768;18.262;2023-05-02T02:36:39;8.32;;;5.00;;
59468;SDS011;45277;52.768;18.262;2023-05-02T02:38:25;8.05;;;4.95;;
59468;SDS011;45277;52.768;18.262;2023-05-02T02:43:39;8.93;;;4.72;;
59468;SDS011;45277;52.768;18.262;2023-05-02T02:45:36;8.43;;;4.93;;
59468;SDS011;45277;52.768;18.262;2023-05-02T02:47:28;9.27;;;4.75;;
59468;SDS011;45277;52.768;18.262;2023-05-02T02:52:58;9.07;;;5.05;;
59468;SDS011;45277;52.768;18.262;2023-05-02T02:54:32;8.85;;;5.13;;
59468;SDS011;45277;52.768;18.262;2023-05-02T02:56:13;7.65;;;4.47;;
59468;SDS011;45277;52.768;18.262;2023-05-02T02:57:54;8.30;;;4.65;;
59468;SDS011;45277;52.768;18.262;2023-05-02T02:59:37;9.95;;;5.07;;
59468;SDS011;45277;52.768;18.262;2023-05-02T03:01:14;9.43;;;4.97;;
59468;SDS011;45277;52.768;18.262;2023-05-02T03:02:49;9.40;;;4.90;;
59468;SDS011;45277;52.768;18.262;2023-05-02T03:04:22;10.20;;;5.00;;
59468;SDS011;45277;52.768;18.262;2023-05-02T03:05:56;9.30;;;5.25;;
59468;SDS011;45277;52.768;18.262;2023-05-02T03:07:29;9.60;;;5.25;;
59468;SDS011;45277;52.768;18.262;2023-05-02T03:09:01;8.50;;;4.90;;
59468;SDS011;45277;52.768;18.262;2023-05-02T03:10:33;9.05;;;5.00;;
59468;SDS011;45277;52.768;18.262;2023-05-02T03:12:05;9.38;;;4.80;;
59468;SDS011;45277;52.768;18.262;2023-05-02T03:13:36;10.73;;;4.93;;
59468;SDS011;45277;52.768;18.262;2023-05-02T03:15:19;9.90;;;5.15;;
59468;SDS011;45277;52.768;18.262;2023-05-02T03:17:10;10.55;;;5.40;;
59468;SDS011;45277;52.768;18.262;2023-05-02T03:18:42;11.95;;;5.10;;
59468;SDS011;45277;52.768;18.262;2023-05-02T03:20:13;10.10;;;5.78;;
59468;SDS011;45277;52.768;18.262;2023-05-02T03:21:45;8.82;;;5.45;;
59468;SDS011;45277;52.768;18.262;2023-05-02T03:23:16;10.10;;;5.60;;
59468;SDS011;45277;52.768;18.262;2023-05-02T03:24:47;8.82;;;5.70;;
59468;SDS011;45277;52.768;18.262;2023-05-02T03:26:19;12.00;;;5.30;;
59468;SDS011;45277;52.768;18.262;2023-05-02T03:27:50;11.98;;;6.20;;
59468;SDS011;45277;52.768;18.262;2023-05-02T03:29:22;12.18;;;5.50;;
59468;SDS011;45277;52.768;18.262;2023-05-02T03:30:54;10.25;;;5.68;;
59468;SDS011;45277;52.768;18.262;2023-05-02T03:32:25;11.63;;;6.68;;
59468;SDS011;45277;52.768;18.262;2023-05-02T03:33:57;11.13;;;5.50;;
59468;SDS011;45277;52.768;18.262;2023-05-02T03:35:28;9.70;;;4.88;;
59468;SDS011;45277;52.768;18.262;2023-05-02T03:36:59;12.93;;;5.93;;
59468;SDS011;45277;52.768;18.262;2023-05-02T03:38:31;12.90;;;5.32;;
59468;SDS011;45277;52.768;18.262;2023-05-02T03:40:03;14.55;;;5.63;;
59468;SDS011;45277;52.768;18.262;2023-05-02T03:41:34;11.05;;;5.50;;
59468;SDS011;45277;52.768;18.262;2023-05-02T03:43:06;13.90;;;6.05;;
59468;SDS011;45277;52.768;18.262;2023-05-02T03:44:37;12.32;;;6.03;;
59468;SDS011;45277;52.768;18.262;2023-05-02T03:46:08;11.90;;;5.93;;
59468;SDS011;45277;52.768;18.262;2023-05-02T03:47:41;13.23;;;5.63;;
59468;SDS011;45277;52.768;18.262;2023-05-02T03:49:12;9.88;;;5.68;;
59468;SDS011;45277;52.768;18.262;2023-05-02T03:50:44;11.63;;;6.03;;
59468;SDS011;45277;52.768;18.262;2023-05-02T03:52:15;9.77;;;5.93;;
59468;SDS011;45277;52.768;18.262;2023-05-02T03:53:47;14.10;;;6.28;;
59468;SDS011;45277;52.768;18.262;2023-05-02T03:55:18;11.10;;;6.70;;
59468;SDS011;45277;52.768;18.262;2023-05-02T03:56:52;11.57;;;6.65;;
59468;SDS011;45277;52.768;18.262;2023-05-02T03:58:24;13.65;;;6.68;;
59468;SDS011;45277;52.768;18.262;2023-05-02T03:59:56;9.93;;;6.65;;
59468;SDS011;45277;52.768;18.262;2023-05-02T04:01:27;10.00;;;6.85;;
59468;SDS011;45277;52.768;18.262;2023-05-02T04:03:00;14.00;;;6.20;;
59468;SDS011;45277;52.768;18.262;2023-05-02T04:04:31;12.52;;;6.47;;
59468;SDS011;45277;52.768;18.262;2023-05-02T04:06:03;17.38;;;6.65;;
59468;SDS011;45277;52.768;18.262;2023-05-02T04:07:34;17.30;;;7.00;;
59468;SDS011;45277;52.768;18.262;2023-05-02T04:09:06;16.08;;;7.28;;
59468;SDS011;45277;52.768;18.262;2023-05-02T04:10:37;13.77;;;6.85;;
59468;SDS011;45277;52.768;18.262;2023-05-02T04:12:09;16.13;;;7.07;;
59468;SDS011;45277;52.768;18.262;2023-05-02T04:13:41;15.35;;;7.10;;
59468;SDS011;45277;52.768;18.262;2023-05-02T04:15:12;18.60;;;7.10;;
59468;SDS011;45277;52.768;18.262;2023-05-02T04:16:50;15.45;;;6.93;;
59468;SDS011;45277;52.768;18.262;2023-05-02T04:18:22;13.95;;;6.45;;
59468;SDS011;45277;52.768;18.262;2023-05-02T04:19:53;16.40;;;7.15;;
59468;SDS011;45277;52.768;18.262;2023-05-02T04:21:25;16.58;;;7.03;;
59468;SDS011;45277;52.768;18.262;2023-05-02T04:22:57;17.35;;;7.50;;
59468;SDS011;45277;52.768;18.262;2023-05-02T04:24:28;16.65;;;7.25;;
59468;SDS011;45277;52.768;18.262;2023-05-02T04:26:00;14.55;;;6.90;;
59468;SDS011;45277;52.768;18.262;2023-05-02T04:27:31;14.23;;;7.22;;
59468;SDS011;45277;52.768;18.262;2023-05-02T04:29:02;13.60;;;7.07;;
59468;SDS011;45277;52.768;18.262;2023-05-02T04:30:34;14.68;;;7.05;;
59468;SDS011;45277;52.768;18.262;2023-05-02T04:32:06;16.38;;;7.63;;
59468;SDS011;45277;52.768;18.262;2023-05-02T04:33:37;18.75;;;7.63;;
59468;SDS011;45277;52.768;18.262;2023-05-02T04:35:09;20.10;;;7.50;;
59468;SDS011;45277;52.768;18.262;2023-05-02T04:36:40;12.85;;;6.90;;
59468;SDS011;45277;52.768;18.262;2023-05-02T04:38:11;14.25;;;6.80;;
59468;SDS011;45277;52.768;18.262;2023-05-02T04:39:47;12.13;;;6.65;;
59468;SDS011;45277;52.768;18.262;2023-05-02T04:41:18;15.30;;;8.77;;
59468;SDS011;45277;52.768;18.262;2023-05-02T04:42:50;14.52;;;8.10;;
59468;SDS011;45277;52.768;18.262;2023-05-02T04:44:22;20.65;;;10.00;;
59468;SDS011;45277;52.768;18.262;2023-05-02T04:45:54;14.55;;;7.68;;
59468;SDS011;45277;52.768;18.262;2023-05-02T04:47:25;17.63;;;8.35;;
59468;SDS011;45277;52.768;18.262;2023-05-02T04:48:57;17.35;;;8.35;;
59468;SDS011;45277;52.768;18.262;2023-05-02T04:50:28;17.83;;;7.75;;
59468;SDS011;45277;52.768;18.262;2023-05-02T04:51:59;14.55;;;6.78;;
59468;SDS011;45277;52.768;18.262;2023-05-02T04:53:31;17.58;;;7.32;;
59468;SDS011;45277;52.768;18.262;2023-05-02T04:55:03;13.70;;;7.55;;
59468;SDS011;45277;52.768;18.262;2023-05-02T04:56:34;17.65;;;7.82;;
59468;SDS011;45277;52.768;18.262;2023-05-02T04:58:06;12.40;;;7.30;;
59468;SDS011;45277;52.768;18.262;2023-05-02T04:59:38;13.27;;;7.35;;
59468;SDS011;45277;52.768;18.262;2023-05-02T05:01:09;15.90;;;7.18;;
59468;SDS011;45277;52.768;18.262;2023-05-02T05:02:41;19.77;;;7.65;;
59468;SDS011;45277;52.768;18.262;2023-05-02T05:04:13;16.27;;;7.05;;
59468;SDS011;45277;52.768;18.262;2023-05-02T05:05:44;14.30;;;7.55;;
59468;SDS011;45277;52.768;18.262;2023-05-02T05:07:16;16.45;;;7.28;;
59468;SDS011;45277;52.768;18.262;2023-05-02T05:08:47;16.17;;;6.57;;
59468;SDS011;45277;52.768;18.262;2023-05-02T05:10:18;14.43;;;6.80;;
59468;SDS011;45277;52.768;18.262;2023-05-02T05:11:50;13.68;;;6.82;;
59468;SDS011;45277;52.768;18.262;2023-05-02T05:13:21;14.30;;;6.57;;
59468;SDS011;45277;52.768;18.262;2023-05-02T05:14:53;18.10;;;7.60;;
59468;SDS011;45277;52.768;18.262;2023-05-02T05:16:24;13.35;;;6.82;;
59468;SDS011;45277;52.768;18.262;2023-05-02T05:17:56;9.70;;;6.13;;
59468;SDS011;45277;52.768;18.262;2023-05-02T05:19:28;14.13;;;6.90;;
59468;SDS011;45277;52.768;18.262;2023-05-02T05:20:59;10.45;;;7.00;;
59468;SDS011;45277;52.768;18.262;2023-05-02T05:22:30;10.77;;;7.05;;
59468;SDS011;45277;52.768;18.262;2023-05-02T05:24:07;11.93;;;7.32;;
59468;SDS011;45277;52.768;18.262;2023-05-02T05:25:39;13.25;;;6.93;;
59468;SDS011;45277;52.768;18.262;2023-05-02T05:27:10;15.35;;;7.25;;
59468;SDS011;45277;52.768;18.262;2023-05-02T05:28:42;11.57;;;7.07;;
59468;SDS011;45277;52.768;18.262;2023-05-02T05:30:14;15.98;;;7.00;;
59468;SDS011;45277;52.768;18.262;2023-05-02T05:31:45;12.40;;;6.65;;
59468;SDS011;45277;52.768;18.262;2023-05-02T05:33:17;13.85;;;7.40;;
59468;SDS011;45277;52.768;18.262;2023-05-02T05:34:52;19.40;;;6.95;;
59468;SDS011;45277;52.768;18.262;2023-05-02T05:36:23;15.65;;;7.32;;
59468;SDS011;45277;52.768;18.262;2023-05-02T05:37:55;14.23;;;6.93;;
59468;SDS011;45277;52.768;18.262;2023-05-02T05:39:26;18.98;;;7.78;;
59468;SDS011;45277;52.768;18.262;2023-05-02T05:40:58;15.85;;;7.43;;
59468;SDS011;45277;52.768;18.262;2023-05-02T05:42:29;16.33;;;7.82;;
59468;SDS011;45277;52.768;18.262;2023-05-02T05:44:01;20.73;;;7.88;;
59468;SDS011;45277;52.768;18.262;2023-05-02T05:45:32;19.73;;;8.52;;
59468;SDS011;45277;52.768;18.262;2023-05-02T05:47:03;15.80;;;7.80;;
59468;SDS011;45277;52.768;18.262;2023-05-02T05:48:35;14.13;;;7.60;;
59468;SDS011;45277;52.768;18.262;2023-05-02T05:50:07;20.17;;;8.65;;
59468;SDS011;45277;52.768;18.262;2023-05-02T05:51:38;17.63;;;7.18;;
59468;SDS011;45277;52.768;18.262;2023-05-02T05:53:10;19.73;;;7.60;;
59468;SDS011;45277;52.768;18.262;2023-05-02T05:54:41;17.52;;;7.65;;
59468;SDS011;45277;52.768;18.262;2023-05-02T05:56:13;16.55;;;7.57;;
59468;SDS011;45277;52.768;18.262;2023-05-02T05:57:44;15.75;;;8.73;;
59468;SDS011;45277;52.768;18.262;2023-05-02T05:59:16;13.23;;;8.18;;
59468;SDS011;45277;52.768;18.262;2023-05-02T06:00:47;19.10;;;7.97;;
59468;SDS011;45277;52.768;18.262;2023-05-02T06:02:20;12.82;;;8.05;;
59468;SDS011;45277;52.768;18.262;2023-05-02T06:03:52;16.17;;;8.35;;
59468;SDS011;45277;52.768;18.262;2023-05-02T06:05:23;17.02;;;8.20;;
59468;SDS011;45277;52.768;18.262;2023-05-02T06:06:55;15.68;;;8.05;;
59468;SDS011;45277;52.768;18.262;2023-05-02T06:08:26;13.32;;;7.93;;
59468;SDS011;45277;52.768;18.262;2023-05-02T06:09:58;12.50;;;8.07;;
59468;SDS011;45277;52.768;18.262;2023-05-02T06:11:30;15.30;;;7.93;;
59468;SDS011;45277;52.768;18.262;2023-05-02T06:13:01;12.68;;;7.80;;
59468;SDS011;45277;52.768;18.262;2023-05-02T06:14:33;12.25;;;7.93;;
59468;SDS011;45277;52.768;18.262;2023-05-02T06:16:04;12.05;;;8.15;;
59468;SDS011;45277;52.768;18.262;2023-05-02T06:17:36;15.45;;;8.30;;
59468;SDS011;45277;52.768;18.262;2023-05-02T06:19:08;16.75;;;8.60;;
59468;SDS011;45277;52.768;18.262;2023-05-02T06:20:39;14.68;;;8.15;;
59468;SDS011;45277;52.768;18.262;2023-05-02T06:22:11;12.00;;;7.90;;
59468;SDS011;45277;52.768;18.262;2023-05-02T06:23:43;12.50;;;8.02;;
59468;SDS011;45277;52.768;18.262;2023-05-02T06:25:15;13.27;;;7.43;;
59468;SDS011;45277;52.768;18.262;2023-05-02T06:28:45;12.75;;;8.18;;
59468;SDS011;45277;52.768;18.262;2023-05-02T06:30:17;14.50;;;8.15;;
59468;SDS011;45277;52.768;18.262;2023-05-02T06:31:48;14.65;;;8.88;;
59468;SDS011;45277;52.768;18.262;2023-05-02T06:33:20;13.68;;;8.25;;
59468;SDS011;45277;52.768;18.262;2023-05-02T06:34:52;16.30;;;8.90;;
59468;SDS011;45277;52.768;18.262;2023-05-02T06:36:24;17.75;;;9.88;;
59468;SDS011;45277;52.768;18.262;2023-05-02T06:37:55;15.10;;;8.38;;
59468;SDS011;45277;52.768;18.262;2023-05-02T06:39:27;14.80;;;7.90;;
59468;SDS011;45277;52.768;18.262;2023-05-02T06:40:59;14.23;;;8.80;;
59468;SDS011;45277;52.768;18.262;2023-05-02T06:42:30;16.10;;;8.57;;
59468;SDS011;45277;52.768;18.262;2023-05-02T06:44:01;13.98;;;8.82;;
59468;SDS011;45277;52.768;18.262;2023-05-02T06:45:33;17.42;;;8.68;;
59468;SDS011;45277;52.768;18.262;2023-05-02T06:47:04;13.60;;;7.05;;
59468;SDS011;45277;52.768;18.262;2023-05-02T06:48:37;12.50;;;7.10;;
59468;SDS011;45277;52.768;18.262;2023-05-02T06:50:08;12.85;;;7.78;;
59468;SDS011;45277;52.768;18.262;2023-05-02T06:51:43;13.90;;;7.95;;
59468;SDS011;45277;52.768;18.262;2023-05-02T06:53:14;12.63;;;7.88;;
59468;SDS011;45277;52.768;18.262;2023-05-02T06:54:46;15.25;;;7.85;;
59468;SDS011;45277;52.768;18.262;2023-05-02T06:56:17;14.27;;;8.38;;
59468;SDS011;45277;52.768;18.262;2023-05-02T06:57:49;14.73;;;7.75;;
59468;SDS011;45277;52.768;18.262;2023-05-02T06:59:21;15.68;;;7.88;;
59468;SDS011;45277;52.768;18.262;2023-05-02T07:00:52;14.75;;;7.47;;
59468;SDS011;45277;52.768;18.262;2023-05-02T07:02:24;14.80;;;8.98;;
59468;SDS011;45277;52.768;18.262;2023-05-02T07:03:55;18.20;;;8.73;;
59468;SDS011;45277;52.768;18.262;2023-05-02T07:05:27;14.65;;;9.23;;
59468;SDS011;45277;52.768;18.262;2023-05-02T07:07:00;16.00;;;8.57;;
59468;SDS011;45277;52.768;18.262;2023-05-02T07:08:32;15.13;;;8.18;;
59468;SDS011;45277;52.768;18.262;2023-05-02T07:10:03;16.60;;;8.95;;
59468;SDS011;45277;52.768;18.262;2023-05-02T07:11:35;14.63;;;8.95;;
59468;SDS011;45277;52.768;18.262;2023-05-02T07:13:06;15.85;;;8.60;;
59468;SDS011;45277;52.768;18.262;2023-05-02T07:14:37;14.38;;;8.82;;
59468;SDS011;45277;52.768;18.262;2023-05-02T07:16:09;14.40;;;9.15;;
59468;SDS011;45277;52.768;18.262;2023-05-02T07:17:40;17.80;;;9.02;;
59468;SDS011;45277;52.768;18.262;2023-05-02T07:19:12;14.80;;;8.68;;
59468;SDS011;45277;52.768;18.262;2023-05-02T07:20:44;17.88;;;8.73;;
59468;SDS011;45277;52.768;18.262;2023-05-02T07:22:15;17.30;;;8.60;;
59468;SDS011;45277;52.768;18.262;2023-05-02T07:23:47;16.20;;;8.50;;
59468;SDS011;45277;52.768;18.262;2023-05-02T07:25:19;15.98;;;8.40;;
59468;SDS011;45277;52.768;18.262;2023-05-02T07:26:50;18.05;;;8.07;;
59468;SDS011;45277;52.768;18.262;2023-05-02T07:28:22;18.17;;;9.40;;
59468;SDS011;45277;52.768;18.262;2023-05-02T07:29:53;16.80;;;8.38;;
59468;SDS011;45277;52.768;18.262;2023-05-02T07:31:25;15.98;;;9.02;;
59468;SDS011;45277;52.768;18.262;2023-05-02T07:32:56;17.08;;;8.95;;
59468;SDS011;45277;52.768;18.262;2023-05-02T07:34:28;18.85;;;9.57;;
59468;SDS011;45277;52.768;18.262;2023-05-02T07:36:00;21.60;;;10.18;;
59468;SDS011;45277;52.768;18.262;2023-05-02T07:37:33;18.55;;;9.13;;
59468;SDS011;45277;52.768;18.262;2023-05-02T07:39:05;20.65;;;10.18;;
59468;SDS011;45277;52.768;18.262;2023-05-02T07:40:37;17.88;;;10.07;;
59468;SDS011;45277;52.768;18.262;2023-05-02T07:42:09;17.00;;;9.13;;
59468;SDS011;45277;52.768;18.262;2023-05-02T07:43:40;16.80;;;9.68;;
59468;SDS011;45277;52.768;18.262;2023-05-02T07:45:11;17.42;;;9.38;;
59468;SDS011;45277;52.768;18.262;2023-05-02T07:46:43;14.32;;;8.52;;
59468;SDS011;45277;52.768;18.262;2023-05-02T07:48:15;15.48;;;8.73;;
59468;SDS011;45277;52.768;18.262;2023-05-02T07:49:49;15.93;;;7.35;;
59468;SDS011;45277;52.768;18.262;2023-05-02T07:53:15;12.43;;;7.90;;
59468;SDS011;45277;52.768;18.262;2023-05-02T07:54:47;14.05;;;8.05;;
59468;SDS011;45277;52.768;18.262;2023-05-02T07:56:19;11.75;;;7.57;;
59468;SDS011;45277;52.768;18.262;2023-05-02T07:57:51;13.75;;;7.47;;
59468;SDS011;45277;52.768;18.262;2023-05-02T07:59:23;14.98;;;7.32;;
59468;SDS011;45277;52.768;18.262;2023-05-02T08:00:54;17.27;;;8.40;;
59468;SDS011;45277;52.768;18.262;2023-05-02T08:02:26;18.55;;;8.80;;
59468;SDS011;45277;52.768;18.262;2023-05-02T08:03:58;21.13;;;8.20;;
59468;SDS011;45277;52.768;18.262;2023-05-02T08:05:30;16.52;;;8.25;;
59468;SDS011;45277;52.768;18.262;2023-05-02T08:07:01;16.20;;;6.95;;
59468;SDS011;45277;52.768;18.262;2023-05-02T08:08:33;14.27;;;7.50;;
59468;SDS011;45277;52.768;18.262;2023-05-02T08:10:05;12.48;;;8.40;;
59468;SDS011;45277;52.768;18.262;2023-05-02T08:11:38;13.55;;;7.53;;
59468;SDS011;45277;52.768;18.262;2023-05-02T08:13:10;16.05;;;7.63;;
59468;SDS011;45277;52.768;18.262;2023-05-02T08:14:42;11.27;;;6.78;;
59468;SDS011;45277;52.768;18.262;2023-05-02T08:16:14;12.88;;;7.18;;
59468;SDS011;45277;52.768;18.262;2023-05-02T08:17:45;12.25;;;6.75;;
59468;SDS011;45277;52.768;18.262;2023-05-02T08:19:17;12.43;;;6.70;;
59468;SDS011;45277;52.768;18.262;2023-05-02T08:20:48;11.80;;;6.60;;
59468;SDS011;45277;52.768;18.262;2023-05-02T08:22:20;13.55;;;6.22;;
59468;SDS011;45277;52.768;18.262;2023-05-02T08:23:55;11.77;;;6.30;;
59468;SDS011;45277;52.768;18.262;2023-05-02T08:25:28;10.48;;;6.03;;
59468;SDS011;45277;52.768;18.262;2023-05-02T08:27:00;12.68;;;7.45;;
59468;SDS011;45277;52.768;18.262;2023-05-02T08:28:33;12.27;;;7.00;;
59468;SDS011;45277;52.768;18.262;2023-05-02T08:30:05;12.82;;;6.85;;
59468;SDS011;45277;52.768;18.262;2023-05-02T08:31:37;10.45;;;5.65;;
59468;SDS011;45277;52.768;18.262;2023-05-02T08:33:10;9.73;;;5.78;;
59468;SDS011;45277;52.768;18.262;2023-05-02T08:34:42;9.95;;;6.13;;
59468;SDS011;45277;52.768;18.262;2023-05-02T08:36:14;8.90;;;5.35;;
59468;SDS011;45277;52.768;18.262;2023-05-02T08:37:47;10.48;;;6.50;;
59468;SDS011;45277;52.768;18.262;2023-05-02T08:39:18;8.52;;;5.22;;
59468;SDS011;45277;52.768;18.262;2023-05-02T08:40:50;12.93;;;8.15;;
59468;SDS011;45277;52.768;18.262;2023-05-02T08:42:22;10.05;;;5.53;;
59468;SDS011;45277;52.768;18.262;2023-05-02T08:43:54;9.77;;;6.15;;
59468;SDS011;45277;52.768;18.262;2023-05-02T08:45:26;4.47;;;3.17;;
59468;SDS011;45277;52.768;18.262;2023-05-02T08:47:09;13.73;;;6.50;;
59468;SDS011;45277;52.768;18.262;2023-05-02T08:48:44;16.92;;;6.28;;
59468;SDS011;45277;52.768;18.262;2023-05-02T08:50:17;9.93;;;4.63;;
59468;SDS011;45277;52.768;18.262;2023-05-02T08:51:49;12.20;;;5.55;;
59468;SDS011;45277;52.768;18.262;2023-05-02T08:53:22;11.10;;;5.30;;
59468;SDS011;45277;52.768;18.262;2023-05-02T08:54:54;11.50;;;5.28;;
59468;SDS011;45277;52.768;18.262;2023-05-02T08:56:26;10.63;;;5.35;;
59468;SDS011;45277;52.768;18.262;2023-05-02T08:57:58;7.75;;;4.40;;
59468;SDS011;45277;52.768;18.262;2023-05-02T08:59:31;9.27;;;4.43;;
59468;SDS011;45277;52.768;18.262;2023-05-02T09:01:06;5.97;;;3.47;;
59468;SDS011;45277;52.768;18.262;2023-05-02T09:03:00;4.32;;;3.13;;
59468;SDS011;45277;52.768;18.262;2023-05-02T09:04:44;6.25;;;3.85;;
59468;SDS011;45277;52.768;18.262;2023-05-02T09:06:21;3.45;;;3.15;;
59468;SDS011;45277;52.768;18.262;2023-05-02T09:07:52;4.13;;;3.40;;
59468;SDS011;45277;52.768;18.262;2023-05-02T09:09:24;5.50;;;3.47;;
59468;SDS011;45277;52.768;18.262;2023-05-02T09:10:56;8.35;;;3.97;;
59468;SDS011;45277;52.768;18.262;2023-05-02T09:12:28;10.05;;;4.03;;
59468;SDS011;45277;52.768;18.262;2023-05-02T09:14:00;4.43;;;3.35;;
59468;SDS011;45277;52.768;18.262;2023-05-02T09:15:34;7.82;;;2.90;;
59468;SDS011;45277;52.768;18.262;2023-05-02T09:17:05;6.05;;;3.65;;
59468;SDS011;45277;52.768;18.262;2023-05-02T09:20:14;8.52;;;3.85;;
59468;SDS011;45277;52.768;18.262;2023-05-02T09:21:46;3.65;;;2.63;;
59468;SDS011;45277;52.768;18.262;2023-05-02T09:23:17;3.25;;;2.67;;
59468;SDS011;45277;52.768;18.262;2023-05-02T09:24:53;4.75;;;3.55;;
59468;SDS011;45277;52.768;18.262;2023-05-02T09:26:26;7.97;;;3.05;;
59468;SDS011;45277;52.768;18.262;2023-05-02T09:28:04;5.70;;;3.70;;
59468;SDS011;45277;52.768;18.262;2023-05-02T09:29:36;4.32;;;3.33;;